Time;durP1;ratioP1;P1;durP2;ratioP2;P2;SDS_P1;SDS_P2;PMS_P1;PMS_P2;Temp;Humidity;BMP_temperature;BMP_pressure;BME280_temperature;BME280_humidity;BME280_pressure;Samples;Min_cycle;Max_cycle;Signal;HPM_P1;HPM_P2
2024/03/08 00:00:45;;;;;;;39.20;15.15;;;;;;;;;;5019367;28;20372;-70
2024/03/08 00:03:10;;;;;;;34.90;16.95;;;;;;;;;;5029045;28;20017;-70
2024/03/08 00:05:38;;;;;;;38.08;16.50;;;;;;;;;;5028132;28;20084;-70
2024/03/08 00:08:03;;;;;;;33.88;15.30;;;;;;;;;;5027578;28;20538;-70
2024/03/08 00:10:29;;;;;;;30.08;14.77;;;;;;;;;;5030735;28;20032;-70
2024/03/08 00:12:54;;;;;;;29.38;12.80;;;;;;;;;;5025589;28;20021;-70
2024/03/08 00:15:19;;;;;;;40.33;16.70;;;;;;;;;;5016975;28;20014;-70
2024/03/08 00:17:44;;;;;;;39.38;16.73;;;;;;;;;;5021955;28;20499;-70
2024/03/08 00:20:10;;;;;;;36.47;15.57;;;;;;;;;;5021917;28;20025;-70
2024/03/08 00:22:36;;;;;;;38.03;15.40;;;;;;;;;;5021804;28;20033;-70
2024/03/08 00:25:02;;;;;;;35.15;16.25;;;;;;;;;;5025174;28;20480;-70
2024/03/08 00:27:27;;;;;;;41.53;17.70;;;;;;;;;;5021002;28;20029;-70
2024/03/08 00:29:52;;;;;;;43.50;17.53;;;;;;;;;;5028466;28;20040;-70
2024/03/08 00:32:17;;;;;;;43.87;17.77;;;;;;;;;;5028005;28;20334;-70
2024/03/08 00:34:43;;;;;;;45.55;18.92;;;;;;;;;;5020465;28;20272;-70
2024/03/08 00:37:08;;;;;;;39.17;17.35;;;;;;;;;;5020920;28;20084;-70
2024/03/08 00:39:34;;;;;;;44.03;18.02;;;;;;;;;;5022610;28;20044;-70
2024/03/08 00:41:59;;;;;;;36.67;17.75;;;;;;;;;;5023506;28;20326;-70
2024/03/08 00:44:24;;;;;;;40.47;17.67;;;;;;;;;;5028042;28;20032;-69
2024/03/08 00:46:49;;;;;;;46.92;18.15;;;;;;;;;;5022829;28;20347;-70
2024/03/08 00:49:15;;;;;;;46.78;19.92;;;;;;;;;;5028010;28;20412;-69
2024/03/08 00:51:40;;;;;;;45.50;17.95;;;;;;;;;;5021477;28;20026;-70
2024/03/08 00:54:05;;;;;;;44.60;19.33;;;;;;;;;;5024941;28;20087;-70
2024/03/08 00:56:31;;;;;;;44.00;18.20;;;;;;;;;;5020683;28;20264;-70
2024/03/08 00:58:56;;;;;;;46.85;17.90;;;;;;;;;;5020488;28;20781;-70
2024/03/08 01:01:21;;;;;;;44.67;18.73;;;;;;;;;;5018756;28;20083;-70
2024/03/08 01:03:48;;;;;;;38.13;17.55;;;;;;;;;;5023832;28;20347;-70
2024/03/08 01:06:13;;;;;;;47.92;19.67;;;;;;;;;;5022764;28;20384;-71
2024/03/08 01:08:42;;;;;;;40.72;17.65;;;;;;;;;;5019154;28;20028;-70
2024/03/08 01:11:07;;;;;;;45.35;17.55;;;;;;;;;;5021013;28;20037;-70
2024/03/08 01:13:32;;;;;;;43.53;17.48;;;;;;;;;;5025801;28;20029;-70
2024/03/08 01:15:57;;;;;;;41.58;16.70;;;;;;;;;;5029420;28;20049;-70
2024/03/08 01:18:22;;;;;;;29.70;10.63;;;;;;;;;;5029364;28;20446;-69
2024/03/08 01:20:48;;;;;;;43.00;18.20;;;;;;;;;;5018422;28;20032;-70
2024/03/08 01:23:13;;;;;;;39.55;19.15;;;;;;;;;;5020222;28;20021;-70
2024/03/08 01:25:38;;;;;;;43.83;18.30;;;;;;;;;;5024386;28;20376;-70
2024/03/08 01:28:04;;;;;;;48.63;17.42;;;;;;;;;;5021115;28;20029;-70
2024/03/08 01:30:29;;;;;;;40.15;15.50;;;;;;;;;;5029403;28;20060;-70
2024/03/08 01:32:54;;;;;;;42.13;18.42;;;;;;;;;;5019054;28;20098;-70
2024/03/08 01:35:22;;;;;;;38.27;17.83;;;;;;;;;;5026032;28;20021;-70
2024/03/08 01:37:49;;;;;;;40.83;18.15;;;;;;;;;;5028809;28;20264;-69
2024/03/08 01:40:14;;;;;;;41.90;15.98;;;;;;;;;;5029695;28;20014;-70
2024/03/08 01:42:39;;;;;;;48.78;18.85;;;;;;;;;;5026577;28;20037;-70
2024/03/08 01:45:08;;;;;;;44.90;18.67;;;;;;;;;;5020214;28;20010;-70
2024/03/08 01:47:34;;;;;;;43.85;19.23;;;;;;;;;;5019578;28;20279;-70
2024/03/08 01:50:01;;;;;;;34.22;15.40;;;;;;;;;;5020578;28;20489;-71
2024/03/08 01:52:26;;;;;;;34.63;12.18;;;;;;;;;;5022293;28;20080;-70
2024/03/08 01:54:52;;;;;;;42.72;14.15;;;;;;;;;;5022870;28;20059;-70
2024/03/08 01:57:17;;;;;;;36.55;13.88;;;;;;;;;;5027238;28;20394;-69
2024/03/08 01:59:43;;;;;;;39.83;18.27;;;;;;;;;;5029891;28;20480;-70
2024/03/08 02:02:08;;;;;;;37.13;17.65;;;;;;;;;;5026592;28;20026;-70
2024/03/08 02:04:34;;;;;;;42.35;17.65;;;;;;;;;;5027548;28;20022;-70
2024/03/08 02:06:59;;;;;;;38.22;19.50;;;;;;;;;;5022317;28;20473;-70
2024/03/08 02:09:25;;;;;;;42.45;17.25;;;;;;;;;;5020246;28;20045;-71
2024/03/08 02:11:50;;;;;;;39.72;17.95;;;;;;;;;;5022202;28;20033;-70
2024/03/08 02:14:16;;;;;;;46.47;18.30;;;;;;;;;;5029242;28;20026;-70
2024/03/08 02:16:42;;;;;;;33.90;14.32;;;;;;;;;;5033126;28;20018;-70
2024/03/08 02:19:09;;;;;;;24.55;9.13;;;;;;;;;;5028454;28;20025;-70
2024/03/08 02:21:35;;;;;;;35.80;14.30;;;;;;;;;;5023777;28;20033;-70
2024/03/08 02:24:00;;;;;;;41.75;17.33;;;;;;;;;;5034383;28;20548;-70
2024/03/08 02:26:25;;;;;;;46.20;18.05;;;;;;;;;;5023985;28;20047;-69
2024/03/08 02:28:50;;;;;;;40.42;19.75;;;;;;;;;;5015042;28;20025;-70
2024/03/08 02:31:16;;;;;;;40.38;18.33;;;;;;;;;;5023759;28;20037;-70
2024/03/08 02:33:41;;;;;;;41.17;16.77;;;;;;;;;;5022639;28;20623;-70
2024/03/08 02:36:06;;;;;;;37.97;17.17;;;;;;;;;;5023482;28;20064;-70
2024/03/08 02:38:32;;;;;;;45.85;18.17;;;;;;;;;;5026079;28;20613;-70
2024/03/08 02:40:58;;;;;;;45.78;15.20;;;;;;;;;;5023674;28;20400;-70
2024/03/08 02:43:24;;;;;;;19.63;9.27;;;;;;;;;;5028985;28;20032;-70
2024/03/08 02:45:49;;;;;;;42.67;17.55;;;;;;;;;;5029378;28;20260;-70
2024/03/08 02:48:16;;;;;;;19.42;9.95;;;;;;;;;;5020616;28;20018;-70
2024/03/08 02:50:42;;;;;;;36.00;17.58;;;;;;;;;;5026408;28;20023;-70
2024/03/08 02:53:07;;;;;;;40.10;17.00;;;;;;;;;;5019297;28;20108;-70
2024/03/08 02:55:35;;;;;;;44.90;19.02;;;;;;;;;;5021307;28;20077;-69
2024/03/08 02:58:00;;;;;;;42.78;17.90;;;;;;;;;;5022819;28;20017;-70
2024/03/08 03:00:26;;;;;;;42.90;17.77;;;;;;;;;;5027453;28;20071;-70
2024/03/08 03:02:54;;;;;;;42.50;18.73;;;;;;;;;;5026626;28;20190;-71
2024/03/08 03:05:20;;;;;;;42.75;17.92;;;;;;;;;;5028967;28;20029;-70
2024/03/08 03:07:45;;;;;;;43.65;18.85;;;;;;;;;;5025561;28;20083;-70
2024/03/08 03:10:12;;;;;;;39.60;17.15;;;;;;;;;;5022208;28;20556;-70
2024/03/08 03:12:38;;;;;;;47.75;14.73;;;;;;;;;;5020002;28;20106;-70
2024/03/08 03:15:03;;;;;;;39.17;17.98;;;;;;;;;;5020601;28;20104;-70
2024/03/08 03:17:28;;;;;;;44.30;18.00;;;;;;;;;;5021906;28;20051;-69
2024/03/08 03:19:53;;;;;;;42.78;18.73;;;;;;;;;;5025492;28;20025;-69
2024/03/08 03:22:19;;;;;;;32.23;12.07;;;;;;;;;;5025513;28;20024;-69
2024/03/08 03:24:46;;;;;;;32.60;15.27;;;;;;;;;;5029993;28;20769;-69
2024/03/08 03:27:11;;;;;;;41.42;17.02;;;;;;;;;;5025602;28;20020;-70
2024/03/08 03:29:37;;;;;;;48.50;19.90;;;;;;;;;;5032524;28;20092;-70
2024/03/08 03:32:04;;;;;;;45.70;19.08;;;;;;;;;;5016834;28;20037;-70
2024/03/08 03:34:29;;;;;;;38.55;15.32;;;;;;;;;;5021714;28;20109;-70
2024/03/08 03:36:55;;;;;;;48.88;18.73;;;;;;;;;;5025664;28;20115;-70
2024/03/08 03:39:22;;;;;;;40.42;16.08;;;;;;;;;;5022331;28;20097;-70
2024/03/08 03:41:49;;;;;;;36.50;14.43;;;;;;;;;;5021602;28;20469;-70
2024/03/08 03:44:14;;;;;;;46.05;19.17;;;;;;;;;;5023620;28;20531;-70
2024/03/08 03:46:44;;;;;;;35.65;14.40;;;;;;;;;;5028617;28;20024;-70
2024/03/08 03:49:09;;;;;;;39.03;16.00;;;;;;;;;;5029036;28;20009;-70
2024/03/08 03:51:34;;;;;;;33.28;14.82;;;;;;;;;;5029855;28;20045;-70
2024/03/08 03:53:59;;;;;;;40.90;18.07;;;;;;;;;;5021496;28;20384;-71
2024/03/08 03:56:25;;;;;;;44.83;17.70;;;;;;;;;;5020286;28;20272;-70
2024/03/08 03:58:51;;;;;;;45.78;18.50;;;;;;;;;;5026641;28;20268;-70
2024/03/08 04:01:16;;;;;;;39.03;16.67;;;;;;;;;;5023544;28;20384;-70
2024/03/08 04:03:43;;;;;;;38.78;16.65;;;;;;;;;;5026623;28;20014;-70
2024/03/08 04:06:08;;;;;;;44.75;17.52;;;;;;;;;;5022699;28;20018;-69
2024/03/08 04:08:34;;;;;;;42.40;17.30;;;;;;;;;;5031388;28;20108;-69
2024/03/08 04:10:59;;;;;;;44.15;18.02;;;;;;;;;;5032017;28;20079;-70
2024/03/08 04:13:24;;;;;;;42.50;18.15;;;;;;;;;;5025214;28;20497;-70
2024/03/08 04:15:49;;;;;;;23.73;10.97;;;;;;;;;;5015493;28;20392;-69
2024/03/08 04:18:15;;;;;;;41.50;17.42;;;;;;;;;;5022484;28;20260;-70
2024/03/08 04:20:40;;;;;;;19.95;8.73;;;;;;;;;;5018307;28;20025;-70
2024/03/08 04:23:05;;;;;;;42.63;17.80;;;;;;;;;;5020745;28;20053;-69
2024/03/08 04:25:30;;;;;;;41.33;18.55;;;;;;;;;;5019259;28;20335;-70
2024/03/08 04:27:56;;;;;;;40.53;17.07;;;;;;;;;;5022622;28;20017;-69
2024/03/08 04:30:21;;;;;;;24.73;8.70;;;;;;;;;;5025508;28;20272;-70
2024/03/08 04:32:47;;;;;;;27.02;11.90;;;;;;;;;;5025418;28;20029;-70
2024/03/08 04:35:12;;;;;;;47.22;18.00;;;;;;;;;;5027045;28;20025;-70
2024/03/08 04:37:37;;;;;;;29.77;12.60;;;;;;;;;;5012655;28;20044;-70
2024/03/08 04:40:03;;;;;;;47.40;18.53;;;;;;;;;;5016559;28;20026;-70
2024/03/08 04:42:29;;;;;;;46.33;17.38;;;;;;;;;;5020780;28;20647;-70
2024/03/08 04:44:54;;;;;;;45.75;19.30;;;;;;;;;;5027114;28;20032;-70
2024/03/08 04:47:20;;;;;;;41.10;15.95;;;;;;;;;;5023141;28;20029;-70
2024/03/08 04:49:45;;;;;;;46.03;17.52;;;;;;;;;;5026612;28;20518;-70
2024/03/08 04:52:10;;;;;;;25.13;11.18;;;;;;;;;;5029408;28;20436;-70
2024/03/08 04:54:36;;;;;;;46.83;18.40;;;;;;;;;;5024318;28;20030;-69
2024/03/08 04:57:01;;;;;;;32.55;14.85;;;;;;;;;;5030263;28;20021;-70
2024/03/08 04:59:27;;;;;;;43.10;17.23;;;;;;;;;;5028601;28;20082;-70
2024/03/08 05:01:52;;;;;;;49.13;18.20;;;;;;;;;;5014593;28;20108;-69
2024/03/08 05:04:17;;;;;;;51.28;22.02;;;;;;;;;;5017869;28;20034;-70
2024/03/08 05:06:42;;;;;;;46.45;17.08;;;;;;;;;;5025559;28;20024;-70
2024/03/08 05:09:13;;;;;;;37.13;13.70;;;;;;;;;;5025010;28;20032;-70
2024/03/08 05:11:44;;;;;;;43.90;15.88;;;;;;;;;;5030144;28;20487;-70
2024/03/08 05:14:10;;;;;;;37.65;15.70;;;;;;;;;;5023170;28;20032;-70
2024/03/08 05:16:35;;;;;;;46.33;19.90;;;;;;;;;;5018258;28;20033;-70
2024/03/08 05:19:01;;;;;;;48.78;22.67;;;;;;;;;;5021278;28;20048;-69
2024/03/08 05:21:26;;;;;;;46.45;19.10;;;;;;;;;;5020243;28;20403;-70
2024/03/08 05:23:51;;;;;;;47.17;17.43;;;;;;;;;;5019222;28;20032;-69
2024/03/08 05:26:16;;;;;;;10.83;5.47;;;;;;;;;;5020580;28;20284;-70
2024/03/08 05:28:42;;;;;;;17.80;9.80;;;;;;;;;;5026184;28;20479;-70
2024/03/08 05:31:07;;;;;;;37.00;16.05;;;;;;;;;;5020441;28;20033;-70
2024/03/08 05:33:34;;;;;;;46.03;18.10;;;;;;;;;;5018116;28;20025;-70
2024/03/08 05:36:00;;;;;;;27.48;11.10;;;;;;;;;;5026235;28;20026;-69
2024/03/08 05:38:25;;;;;;;26.08;10.77;;;;;;;;;;5014819;28;20018;-70
2024/03/08 05:40:51;;;;;;;20.50;9.50;;;;;;;;;;5019928;28;20083;-70
2024/03/08 05:43:19;;;;;;;47.72;20.20;;;;;;;;;;5027552;28;20013;-70
2024/03/08 05:45:44;;;;;;;48.50;19.23;;;;;;;;;;5021728;28;20045;-70
2024/03/08 05:48:09;;;;;;;31.15;11.95;;;;;;;;;;5024285;28;20057;-70
2024/03/08 05:50:35;;;;;;;24.05;9.90;;;;;;;;;;5024470;28;20018;-70
2024/03/08 05:53:00;;;;;;;45.17;17.70;;;;;;;;;;5020335;28;20021;-71
2024/03/08 05:55:25;;;;;;;41.58;17.85;;;;;;;;;;5026493;28;20725;-70
2024/03/08 05:57:50;;;;;;;37.63;14.33;;;;;;;;;;5024261;28;20037;-70
2024/03/08 06:00:16;;;;;;;17.48;8.15;;;;;;;;;;5024939;28;20280;-70
2024/03/08 06:02:41;;;;;;;45.58;19.70;;;;;;;;;;5021206;28;20067;-70
2024/03/08 06:05:08;;;;;;;46.42;18.52;;;;;;;;;;5023304;28;20014;-71
2024/03/08 06:07:33;;;;;;;33.65;13.65;;;;;;;;;;5023680;28;20013;-69
2024/03/08 06:10:00;;;;;;;41.58;15.77;;;;;;;;;;5018057;28;20017;-70
2024/03/08 06:12:28;;;;;;;46.58;18.95;;;;;;;;;;5020603;28;20472;-70
2024/03/08 06:14:54;;;;;;;27.75;10.88;;;;;;;;;;5023158;28;20461;-70
2024/03/08 06:17:19;;;;;;;47.50;20.73;;;;;;;;;;5022727;28;20108;-69
2024/03/08 06:19:44;;;;;;;43.47;18.05;;;;;;;;;;5016221;28;20056;-70
2024/03/08 06:22:09;;;;;;;48.95;18.13;;;;;;;;;;5020127;28;20035;-70
2024/03/08 06:24:36;;;;;;;50.30;20.02;;;;;;;;;;5019494;28;20045;-70
2024/03/08 06:27:01;;;;;;;51.47;22.40;;;;;;;;;;5018332;28;20473;-71
2024/03/08 06:29:27;;;;;;;46.35;20.92;;;;;;;;;;5020331;28;20017;-70
2024/03/08 06:31:53;;;;;;;50.03;21.53;;;;;;;;;;5017793;28;20083;-70
2024/03/08 06:34:18;;;;;;;13.30;6.70;;;;;;;;;;5018971;28;20279;-70
2024/03/08 06:36:44;;;;;;;39.95;16.13;;;;;;;;;;5023128;28;20030;-70
2024/03/08 06:39:09;;;;;;;53.25;22.60;;;;;;;;;;5017535;28;20033;-71
2024/03/08 06:41:35;;;;;;;50.42;21.40;;;;;;;;;;5017007;28;20121;-70
2024/03/08 06:44:00;;;;;;;45.65;21.25;;;;;;;;;;5017044;28;20392;-70
2024/03/08 06:46:26;;;;;;;41.65;17.02;;;;;;;;;;5021620;28;20040;-70
2024/03/08 06:48:51;;;;;;;49.00;16.43;;;;;;;;;;5020720;28;20480;-70
2024/03/08 06:51:16;;;;;;;40.97;13.65;;;;;;;;;;5025468;28;20275;-70
2024/03/08 06:53:42;;;;;;;42.33;18.80;;;;;;;;;;5025598;28;20017;-70
2024/03/08 06:56:07;;;;;;;47.97;20.60;;;;;;;;;;5024970;28;20025;-69
2024/03/08 06:58:33;;;;;;;47.88;20.10;;;;;;;;;;5021519;28;20488;-70
2024/03/08 07:01:00;;;;;;;46.70;18.08;;;;;;;;;;5029972;28;20037;-71
2024/03/08 07:03:26;;;;;;;30.42;13.27;;;;;;;;;;5028995;28;20018;-70
2024/03/08 07:05:51;;;;;;;51.67;21.48;;;;;;;;;;5028231;28;20036;-70
2024/03/08 07:08:16;;;;;;;39.85;14.77;;;;;;;;;;5024961;28;20014;-70
2024/03/08 07:10:41;;;;;;;46.25;17.50;;;;;;;;;;5024478;28;20014;-70
2024/03/08 07:13:07;;;;;;;41.08;19.27;;;;;;;;;;5029864;28;20032;-70
2024/03/08 07:15:32;;;;;;;45.00;20.60;;;;;;;;;;5029369;28;20024;-70
2024/03/08 07:17:59;;;;;;;38.53;17.30;;;;;;;;;;5027894;28;20087;-70
2024/03/08 07:20:24;;;;;;;30.20;12.85;;;;;;;;;;5032665;28;20268;-70
2024/03/08 07:22:52;;;;;;;30.83;13.00;;;;;;;;;;5026021;28;20110;-70
2024/03/08 07:25:21;;;;;;;39.33;15.88;;;;;;;;;;5021510;28;20257;-70
2024/03/08 07:27:47;;;;;;;40.13;19.25;;;;;;;;;;5029049;28;20019;-70
2024/03/08 07:30:13;;;;;;;39.28;17.77;;;;;;;;;;5028982;28;20017;-71
2024/03/08 07:32:38;;;;;;;38.00;19.05;;;;;;;;;;5026032;28;20025;-71
2024/03/08 07:35:04;;;;;;;40.47;18.75;;;;;;;;;;5020872;28;20025;-70
2024/03/08 07:37:31;;;;;;;39.53;16.02;;;;;;;;;;5029924;28;20087;-71
2024/03/08 07:39:58;;;;;;;38.25;20.48;;;;;;;;;;5023471;28;20021;-72
2024/03/08 07:42:23;;;;;;;39.20;19.38;;;;;;;;;;5029265;28;20021;-70
2024/03/08 07:44:50;;;;;;;35.80;17.50;;;;;;;;;;5026785;28;20022;-72
2024/03/08 07:47:17;;;;;;;32.70;16.45;;;;;;;;;;5024671;28;20018;-70
2024/03/08 07:49:43;;;;;;;35.65;17.35;;;;;;;;;;5026036;28;20564;-70
2024/03/08 07:52:08;;;;;;;42.08;12.70;;;;;;;;;;5025307;28;20025;-72
2024/03/08 07:54:34;;;;;;;29.17;14.20;;;;;;;;;;5030255;28;20651;-71
2024/03/08 07:57:01;;;;;;;32.10;17.85;;;;;;;;;;5024946;28;20260;-72
2024/03/08 07:59:26;;;;;;;40.50;18.23;;;;;;;;;;5023131;28;20229;-70
2024/03/08 08:01:51;;;;;;;39.03;18.80;;;;;;;;;;5028818;28;20022;-71
2024/03/08 08:04:18;;;;;;;32.63;18.08;;;;;;;;;;5029165;28;20256;-71
2024/03/08 08:06:43;;;;;;;24.27;11.95;;;;;;;;;;5024074;28;20765;-71
2024/03/08 08:09:14;;;;;;;35.37;17.00;;;;;;;;;;5027509;28;20025;-71
2024/03/08 08:11:40;;;;;;;32.90;17.40;;;;;;;;;;5026589;28;20271;-71
2024/03/08 08:14:06;;;;;;;16.98;9.95;;;;;;;;;;5022642;28;20029;-72
2024/03/08 08:16:31;;;;;;;37.53;18.35;;;;;;;;;;5026501;28;20610;-71
2024/03/08 08:18:57;;;;;;;26.00;13.70;;;;;;;;;;5030251;28;20506;-71
2024/03/08 08:21:22;;;;;;;38.20;18.37;;;;;;;;;;5026678;28;20036;-70
2024/03/08 08:23:47;;;;;;;28.77;12.73;;;;;;;;;;5027739;28;20260;-72
2024/03/08 08:26:12;;;;;;;38.10;18.20;;;;;;;;;;5024801;28;20906;-71
2024/03/08 08:28:38;;;;;;;29.50;16.57;;;;;;;;;;5025693;28;20024;-71
2024/03/08 08:31:04;;;;;;;35.72;17.45;;;;;;;;;;5026062;28;20656;-71
2024/03/08 08:33:29;;;;;;;14.85;8.40;;;;;;;;;;5025651;28;20025;-71
2024/03/08 08:35:54;;;;;;;25.10;11.57;;;;;;;;;;5022636;28;20109;-71
2024/03/08 08:38:20;;;;;;;48.72;18.13;;;;;;;;;;5026064;28;20022;-71
2024/03/08 08:40:47;;;;;;;34.20;17.17;;;;;;;;;;5028353;28;20021;-71
2024/03/08 08:43:12;;;;;;;29.50;14.48;;;;;;;;;;5028646;28;20009;-71
2024/03/08 08:45:38;;;;;;;33.00;16.40;;;;;;;;;;5028972;28;20435;-71
2024/03/08 08:48:05;;;;;;;29.23;16.13;;;;;;;;;;5027764;28;20534;-71
2024/03/08 08:50:30;;;;;;;29.20;16.17;;;;;;;;;;5025973;28;20079;-71
2024/03/08 08:52:56;;;;;;;32.80;15.75;;;;;;;;;;5027641;28;20022;-72
2024/03/08 08:55:24;;;;;;;30.40;16.07;;;;;;;;;;5023915;28;20461;-70
2024/03/08 08:57:51;;;;;;;30.58;18.02;;;;;;;;;;5018723;28;20278;-69
2024/03/08 09:00:18;;;;;;;22.50;10.32;;;;;;;;;;5022693;28;20018;-69
2024/03/08 09:02:44;;;;;;;30.10;16.38;;;;;;;;;;5023553;28;20014;-70
2024/03/08 09:05:09;;;;;;;21.08;10.50;;;;;;;;;;5024803;28;20609;-71
2024/03/08 09:07:34;;;;;;;17.10;8.15;;;;;;;;;;5022113;28;20013;-69
2024/03/08 09:10:00;;;;;;;29.60;15.55;;;;;;;;;;5028740;28;20464;-69
2024/03/08 09:12:25;;;;;;;32.42;17.00;;;;;;;;;;5027578;28;20665;-68
2024/03/08 09:14:50;;;;;;;23.08;10.63;;;;;;;;;;5031820;28;20104;-68
2024/03/08 09:17:20;;;;;;;24.67;10.40;;;;;;;;;;5024620;28;20032;-68
2024/03/08 09:19:45;;;;;;;25.53;10.80;;;;;;;;;;5023986;28;20073;-70
2024/03/08 09:22:11;;;;;;;25.73;12.02;;;;;;;;;;5020843;28;20424;-69
2024/03/08 09:24:36;;;;;;;23.92;13.20;;;;;;;;;;5018784;28;20010;-69
2024/03/08 09:27:01;;;;;;;25.13;11.02;;;;;;;;;;5017128;28;20115;-68
2024/03/08 09:29:26;;;;;;;21.80;8.05;;;;;;;;;;5016005;28;20021;-73
2024/03/08 09:31:52;;;;;;;18.05;9.65;;;;;;;;;;5019334;28;20256;-70
2024/03/08 09:34:18;;;;;;;34.60;17.75;;;;;;;;;;5016776;28;20570;-71
2024/03/08 09:36:43;;;;;;;25.00;13.00;;;;;;;;;;5022365;28;20013;-71
2024/03/08 09:39:09;;;;;;;24.13;11.55;;;;;;;;;;5016346;28;20025;-71
2024/03/08 09:41:34;;;;;;;21.90;11.83;;;;;;;;;;5021308;28;20494;-70
2024/03/08 09:44:00;;;;;;;25.55;11.63;;;;;;;;;;5023396;28;20267;-71
2024/03/08 09:46:27;;;;;;;19.23;9.23;;;;;;;;;;5022440;28;20026;-71
2024/03/08 09:48:53;;;;;;;30.55;13.05;;;;;;;;;;5024172;28;20480;-70
2024/03/08 09:51:23;;;;;;;22.20;10.45;;;;;;;;;;5024790;28;20029;-71
2024/03/08 09:53:48;;;;;;;23.73;12.38;;;;;;;;;;5024202;28;20025;-70
2024/03/08 09:56:14;;;;;;;23.93;13.47;;;;;;;;;;5019836;28;20033;-71
2024/03/08 09:59:06;;;;;;;24.92;11.82;;;;;;;;;;5030435;28;20268;-71
2024/03/08 10:01:31;;;;;;;26.50;13.20;;;;;;;;;;5025751;28;20029;-72
2024/03/08 10:03:57;;;;;;;27.85;13.40;;;;;;;;;;5024898;28;20160;-70
2024/03/08 10:06:23;;;;;;;21.67;11.25;;;;;;;;;;5019025;28;20204;-71
2024/03/08 10:08:48;;;;;;;34.55;14.63;;;;;;;;;;5021269;28;20030;-70
2024/03/08 10:11:13;;;;;;;18.50;7.88;;;;;;;;;;5023945;28;20042;-72
2024/03/08 10:13:40;;;;;;;17.42;8.95;;;;;;;;;;5021224;28;20026;-70
2024/03/08 10:16:05;;;;;;;20.42;10.80;;;;;;;;;;5015767;28;20374;-72
2024/03/08 10:18:32;;;;;;;25.25;11.60;;;;;;;;;;5028995;28;20091;-72
2024/03/08 10:21:04;;;;;;;31.25;13.73;;;;;;;;;;5023263;28;20026;-70
2024/03/08 10:23:30;;;;;;;28.70;16.48;;;;;;;;;;5029380;28;20014;-72
2024/03/08 10:25:58;;;;;;;29.67;13.85;;;;;;;;;;5027922;28;20025;-70
2024/03/08 10:28:24;;;;;;;25.30;14.13;;;;;;;;;;5026898;28;20014;-70
2024/03/08 10:30:49;;;;;;;25.10;12.18;;;;;;;;;;5030428;28;20446;-70
2024/03/08 10:33:15;;;;;;;19.80;8.73;;;;;;;;;;5026895;28;20084;-70
2024/03/08 10:35:40;;;;;;;21.75;9.77;;;;;;;;;;5031563;28;20257;-71
2024/03/08 10:38:08;;;;;;;26.35;13.77;;;;;;;;;;5037195;28;20013;-70
2024/03/08 10:40:36;;;;;;;18.73;8.95;;;;;;;;;;5036854;28;20504;-70
2024/03/08 10:43:02;;;;;;;21.15;9.57;;;;;;;;;;5032334;28;20084;-71
2024/03/08 10:45:31;;;;;;;17.20;6.70;;;;;;;;;;5029452;28;20101;-71
2024/03/08 10:48:17;;;;;;;22.77;8.50;;;;;;;;;;5026189;28;20016;-71
2024/03/08 10:50:45;;;;;;;26.73;12.52;;;;;;;;;;5028841;28;20057;-71
2024/03/08 10:53:11;;;;;;;24.60;11.57;;;;;;;;;;5032058;28;20068;-71
2024/03/08 10:55:36;;;;;;;14.27;8.30;;;;;;;;;;5036511;28;20052;-70
2024/03/08 10:58:01;;;;;;;13.38;6.68;;;;;;;;;;5033495;28;20033;-72
2024/03/08 11:00:27;;;;;;;15.07;6.83;;;;;;;;;;5029716;28;20033;-71
2024/03/08 11:02:53;;;;;;;23.13;12.43;;;;;;;;;;5033292;28;20272;-71
2024/03/08 11:05:51;;;;;;;20.00;10.27;;;;;;;;;;5036345;28;20025;-71
2024/03/08 11:08:19;;;;;;;18.85;9.32;;;;;;;;;;5026528;28;20033;-71
2024/03/08 11:10:51;;;;;;;22.73;11.00;;;;;;;;;;5031050;28;20496;-72
2024/03/08 11:13:35;;;;;;;25.10;10.32;;;;;;;;;;5029527;28;20021;-70
2024/03/08 11:16:01;;;;;;;17.00;7.57;;;;;;;;;;5022972;28;20050;-70
2024/03/08 11:18:26;;;;;;;23.00;11.45;;;;;;;;;;5024355;28;20053;-71
2024/03/08 11:20:53;;;;;;;15.35;7.65;;;;;;;;;;5025840;28;20060;-71
2024/03/08 11:23:22;;;;;;;18.48;10.00;;;;;;;;;;5031068;28;20765;-71
2024/03/08 11:25:52;;;;;;;16.58;7.55;;;;;;;;;;5027448;28;20524;-71
2024/03/08 11:28:19;;;;;;;19.85;10.05;;;;;;;;;;5027828;28;20010;-71
2024/03/08 11:31:04;;;;;;;22.17;10.45;;;;;;;;;;5026298;28;20084;-71
2024/03/08 11:33:30;;;;;;;17.67;8.02;;;;;;;;;;5024450;28;20066;-71
2024/03/08 11:36:11;;;;;;;24.25;11.80;;;;;;;;;;5023183;28;20404;-70
2024/03/08 11:38:48;;;;;;;20.60;10.43;;;;;;;;;;5027313;28;20033;-68
2024/03/08 11:41:21;;;;;;;19.13;9.63;;;;;;;;;;5026262;28;20022;-71
2024/03/08 11:43:46;;;;;;;17.60;10.15;;;;;;;;;;5028617;28;20056;-71
2024/03/08 11:46:12;;;;;;;11.15;5.47;;;;;;;;;;5024714;28;20041;-71
2024/03/08 11:48:38;;;;;;;14.70;6.85;;;;;;;;;;5026676;28;20490;-71
2024/03/08 11:51:04;;;;;;;19.63;9.32;;;;;;;;;;5022450;28;20021;-71
2024/03/08 11:53:30;;;;;;;20.40;9.98;;;;;;;;;;5025409;28;20041;-71
2024/03/08 11:56:05;;;;;;;18.10;7.60;;;;;;;;;;5022686;28;20029;-71
2024/03/08 11:58:31;;;;;;;18.00;8.90;;;;;;;;;;5019605;28;20075;-71
2024/03/08 12:01:04;;;;;;;18.63;7.40;;;;;;;;;;5021690;28;20013;-71
2024/03/08 12:03:29;;;;;;;21.77;9.77;;;;;;;;;;5018763;28;20022;-71
2024/03/08 12:05:59;;;;;;;21.27;8.03;;;;;;;;;;5023043;28;20030;-71
2024/03/08 12:08:28;;;;;;;13.93;7.15;;;;;;;;;;5020794;28;20268;-72
2024/03/08 12:10:55;;;;;;;18.45;9.77;;;;;;;;;;5025862;28;20024;-71
2024/03/08 12:13:20;;;;;;;18.95;9.27;;;;;;;;;;5019499;28;20018;-72
2024/03/08 12:15:46;;;;;;;15.33;6.57;;;;;;;;;;5026426;28;20028;-71
2024/03/08 12:18:12;;;;;;;16.63;8.23;;;;;;;;;;5026368;28;20271;-71
2024/03/08 12:20:39;;;;;;;15.82;6.35;;;;;;;;;;5024272;28;20021;-70
2024/03/08 12:23:05;;;;;;;14.40;8.13;;;;;;;;;;5023965;28;20029;-71
2024/03/08 12:25:35;;;;;;;19.45;8.77;;;;;;;;;;5017921;28;20025;-71
2024/03/08 12:28:13;;;;;;;14.65;8.07;;;;;;;;;;5021053;28;20022;-71
2024/03/08 12:30:46;;;;;;;16.27;7.65;;;;;;;;;;5020792;28;20040;-71
2024/03/08 12:33:12;;;;;;;19.30;8.60;;;;;;;;;;5021445;28;20511;-71
2024/03/08 12:35:37;;;;;;;17.40;8.57;;;;;;;;;;5018065;28;20026;-71
2024/03/08 12:38:03;;;;;;;14.98;7.25;;;;;;;;;;5016724;28;20072;-70
2024/03/08 12:40:29;;;;;;;14.13;6.97;;;;;;;;;;5023666;28;20111;-71
2024/03/08 12:43:02;;;;;;;18.58;9.50;;;;;;;;;;5016967;28;20373;-72
2024/03/08 12:45:27;;;;;;;13.52;5.93;;;;;;;;;;5019807;28;20026;-71
2024/03/08 12:47:53;;;;;;;14.68;6.72;;;;;;;;;;5018195;28;20491;-71
2024/03/08 12:50:19;;;;;;;14.07;6.72;;;;;;;;;;5023087;28;20737;-73
2024/03/08 12:52:44;;;;;;;15.85;7.78;;;;;;;;;;5023887;28;20533;-71
2024/03/08 12:55:10;;;;;;;16.77;9.35;;;;;;;;;;5017735;28;20025;-71
2024/03/08 12:57:37;;;;;;;18.87;10.57;;;;;;;;;;5021459;28;20073;-71
2024/03/08 13:00:03;;;;;;;19.77;7.38;;;;;;;;;;5020904;28;20268;-71
2024/03/08 13:02:30;;;;;;;15.07;7.18;;;;;;;;;;5022676;28;20033;-70
2024/03/08 13:04:57;;;;;;;19.60;9.23;;;;;;;;;;5020275;28;20009;-71
2024/03/08 13:07:25;;;;;;;12.80;5.50;;;;;;;;;;5022427;28;20029;-71
2024/03/08 13:09:54;;;;;;;16.80;10.25;;;;;;;;;;5024679;28;20075;-71
2024/03/08 13:12:20;;;;;;;15.38;8.07;;;;;;;;;;5024720;28;20413;-71
2024/03/08 13:14:45;;;;;;;18.90;10.23;;;;;;;;;;5018132;28;20036;-71
2024/03/08 13:17:11;;;;;;;19.98;6.57;;;;;;;;;;5020292;28;20036;-71
2024/03/08 13:19:38;;;;;;;11.45;5.93;;;;;;;;;;5022517;28;20032;-71
2024/03/08 13:22:06;;;;;;;18.02;9.10;;;;;;;;;;5022730;28;20098;-71
2024/03/08 13:24:31;;;;;;;9.90;5.20;;;;;;;;;;5018509;28;20079;-71
2024/03/08 13:26:56;;;;;;;16.73;9.10;;;;;;;;;;5023670;28;20022;-71
2024/03/08 13:29:22;;;;;;;24.05;9.90;;;;;;;;;;5019114;28;20286;-71
2024/03/08 13:31:51;;;;;;;22.13;11.75;;;;;;;;;;5017105;28;20026;-71
2024/03/08 13:34:17;;;;;;;20.77;10.68;;;;;;;;;;5023129;28;20024;-70
2024/03/08 13:36:43;;;;;;;23.52;10.35;;;;;;;;;;5023261;28;21422;-71
2024/03/08 13:39:15;;;;;;;17.05;8.02;;;;;;;;;;5022401;28;20022;-71
2024/03/08 13:41:40;;;;;;;19.80;10.75;;;;;;;;;;5018908;28;20030;-71
2024/03/08 13:44:06;;;;;;;17.65;8.30;;;;;;;;;;5023475;28;20024;-71
2024/03/08 13:46:31;;;;;;;16.95;8.10;;;;;;;;;;5024823;28;20021;-72
2024/03/08 13:49:05;;;;;;;19.87;9.60;;;;;;;;;;5018760;28;20072;-71
2024/03/08 13:51:30;;;;;;;22.50;9.25;;;;;;;;;;5020388;28;20269;-72
2024/03/08 13:53:55;;;;;;;20.13;10.98;;;;;;;;;;5020047;28;20488;-71
2024/03/08 13:56:21;;;;;;;19.70;10.67;;;;;;;;;;5027733;28;20025;-71
2024/03/08 13:58:46;;;;;;;16.25;8.85;;;;;;;;;;5028648;28;20030;-73
2024/03/08 14:01:12;;;;;;;19.30;10.17;;;;;;;;;;5032250;28;20102;-71
2024/03/08 14:03:37;;;;;;;14.98;6.55;;;;;;;;;;5027682;28;20026;-69
2024/03/08 14:06:03;;;;;;;25.77;12.48;;;;;;;;;;5033499;28;20018;-68
2024/03/08 14:08:28;;;;;;;23.95;10.80;;;;;;;;;;5028331;28;20029;-69
2024/03/08 14:10:54;;;;;;;21.70;10.98;;;;;;;;;;5025442;28;20072;-71
2024/03/08 14:13:19;;;;;;;16.87;9.33;;;;;;;;;;5027591;28;20032;-72
2024/03/08 14:15:46;;;;;;;20.30;9.80;;;;;;;;;;5021753;28;20295;-71